Time;durP1;ratioP1;P1;durP2;ratioP2;P2;SDS_P1;SDS_P2;PMS_P1;PMS_P2;Temp;Humidity;BMP_temperature;BMP_pressure;BME280_temperature;BME280_humidity;BME280_pressure;Samples;Min_cycle;Max_cycle;Signal;HPM_P1;HPM_P2
2023/07/01 00:00:57;;;;;;;7.10;6.15;;;16.80;78.60;;;;;;5013902;28;20181;-89
2023/07/01 00:03:23;;;;;;;7.43;6.47;;;16.70;78.80;;;;;;5014004;28;20193;-89
2023/07/01 00:05:49;;;;;;;6.80;6.15;;;16.80;78.80;;;;;;5014540;28;20173;-89
2023/07/01 00:08:14;;;;;;;7.28;6.07;;;16.70;78.90;;;;;;5014322;28;20645;-89
2023/07/01 00:10:40;;;;;;;7.65;6.20;;;16.70;78.60;;;;;;5014170;28;20184;-89
2023/07/01 00:13:05;;;;;;;9.77;6.22;;;16.70;78.60;;;;;;5013812;28;20255;-89
2023/07/01 00:15:31;;;;;;;7.00;6.03;;;16.70;78.70;;;;;;5014968;28;20280;-90
2023/07/01 00:17:56;;;;;;;8.18;5.90;;;16.70;78.70;;;;;;5014239;28;20184;-89
2023/07/01 00:20:22;;;;;;;6.28;5.68;;;16.70;79.00;;;;;;5014399;28;20173;-89
2023/07/01 00:22:48;;;;;;;8.35;6.28;;;16.70;78.90;;;;;;5014335;28;20186;-89
2023/07/01 00:25:13;;;;;;;10.45;6.10;;;16.70;78.60;;;;;;5014626;28;20645;-89
2023/07/01 00:27:39;;;;;;;7.28;6.10;;;16.80;78.20;;;;;;5014594;28;20209;-89
2023/07/01 00:30:05;;;;;;;6.93;5.68;;;16.80;77.80;;;;;;4996577;28;20224;-89
2023/07/01 00:32:30;;;;;;;8.25;6.35;;;16.80;78.00;;;;;;5017065;28;20178;-90
2023/07/01 00:34:56;;;;;;;13.27;8.80;;;16.80;77.70;;;;;;5016771;28;20204;-90
2023/07/01 00:37:22;;;;;;;9.75;6.68;;;16.90;77.80;;;;;;5017131;28;20174;-89
2023/07/01 00:39:47;;;;;;;7.38;6.68;;;16.90;78.00;;;;;;5017073;28;20193;-90
2023/07/01 00:42:13;;;;;;;7.97;6.07;;;16.90;77.70;;;;;;5016765;28;20235;-85
2023/07/01 00:44:39;;;;;;;8.85;6.70;;;16.90;77.90;;;;;;4998830;28;20200;-90
2023/07/01 00:47:05;;;;;;;8.10;6.53;;;16.80;77.70;;;;;;5016468;28;20181;-90
2023/07/01 00:49:31;;;;;;;11.48;6.30;;;16.80;77.70;;;;;;4999495;28;20680;-91
2023/07/01 00:51:57;;;;;;;8.77;6.57;;;16.80;77.80;;;;;;4999119;28;20220;-90
2023/07/01 00:54:24;;;;;;;7.68;6.85;;;16.80;77.80;;;;;;4999900;28;20249;-88
2023/07/01 00:56:49;;;;;;;8.25;7.18;;;16.80;77.50;;;;;;5016241;28;20204;-88
2023/07/01 00:59:15;;;;;;;7.15;6.60;;;16.90;77.00;;;;;;4998696;28;20178;-88
2023/07/01 01:01:47;;;;;;;8.13;7.20;;;16.80;77.40;;;;;;4998710;28;20169;-88
2023/07/01 01:04:31;;;;;;;7.47;6.80;;;16.80;77.50;;;;;;4998688;28;20197;-88
2023/07/01 01:07:08;;;;;;;9.70;6.80;;;16.80;77.40;;;;;;4998511;28;20666;-88
2023/07/01 01:09:45;;;;;;;8.55;6.97;;;16.80;77.20;;;;;;5016251;28;20165;-88
2023/07/01 01:12:12;;;;;;;7.15;6.55;;;16.80;77.10;;;;;;4998551;28;20605;-88
2023/07/01 01:14:39;;;;;;;7.85;7.07;;;16.80;76.90;;;;;;4998187;28;20259;-88
2023/07/01 01:17:13;;;;;;;7.47;6.78;;;16.80;76.80;;;;;;5015984;28;20245;-88
2023/07/01 01:19:52;;;;;;;9.25;7.00;;;16.80;77.10;;;;;;4998345;28;20170;-88
2023/07/01 01:22:40;;;;;;;9.05;6.45;;;16.70;77.10;;;;;;5016020;28;20165;-87
2023/07/01 01:25:08;;;;;;;11.70;6.95;;;16.80;76.80;;;;;;5015824;28;20180;-88
2023/07/01 01:27:39;;;;;;;7.82;7.13;;;16.80;76.70;;;;;;5016204;28;20641;-88
2023/07/01 01:30:06;;;;;;;7.75;6.95;;;16.70;76.60;;;;;;4998621;28;20185;-88
2023/07/01 01:32:33;;;;;;;7.78;6.90;;;16.70;76.70;;;;;;4997919;28;20304;-88
2023/07/01 01:34:59;;;;;;;7.35;6.75;;;16.70;76.50;;;;;;4998513;28;20201;-88
2023/07/01 01:37:49;;;;;;;8.52;7.55;;;16.70;76.50;;;;;;4998116;28;20521;-88
2023/07/01 01:40:25;;;;;;;8.07;7.35;;;16.70;76.00;;;;;;5015931;28;20256;-87
2023/07/01 01:42:58;;;;;;;8.13;7.30;;;16.70;76.00;;;;;;4998453;28;20613;-88
2023/07/01 01:45:23;;;;;;;7.63;6.93;;;16.70;75.80;;;;;;4998012;28;20687;-88
2023/07/01 01:47:50;;;;;;;9.43;7.05;;;16.70;75.60;;;;;;5015878;28;20180;-88
2023/07/01 01:50:19;;;;;;;9.23;7.57;;;16.70;75.40;;;;;;4998026;28;20177;-88
2023/07/01 01:52:49;;;;;;;8.98;7.28;;;16.80;75.60;;;;;;4997728;28;20208;-87
2023/07/01 01:55:15;;;;;;;8.80;7.90;;;16.70;75.20;;;;;;4997709;28;20685;-88
2023/07/01 01:57:41;;;;;;;9.05;7.90;;;16.70;75.40;;;;;;4997982;28;20649;-88
2023/07/01 02:00:08;;;;;;;9.10;7.55;;;16.70;75.20;;;;;;4997729;28;20173;-88
2023/07/01 02:02:35;;;;;;;8.95;7.75;;;16.70;75.30;;;;;;5015070;28;20552;-87
2023/07/01 02:05:01;;;;;;;8.35;7.65;;;16.70;75.30;;;;;;4997858;28;20219;-88
2023/07/01 02:07:26;;;;;;;8.35;7.65;;;16.70;75.30;;;;;;4997692;28;20213;-88
2023/07/01 02:09:52;;;;;;;8.23;7.57;;;16.80;75.40;;;;;;4997281;28;20255;-88
2023/07/01 02:12:18;;;;;;;9.50;8.20;;;16.70;75.60;;;;;;5014902;28;20670;-87
2023/07/01 02:14:43;;;;;;;9.40;8.23;;;16.70;75.50;;;;;;5015092;28;20627;-88
2023/07/01 02:17:09;;;;;;;7.65;7.10;;;16.70;75.20;;;;;;5015140;28;20182;-88
2023/07/01 02:19:34;;;;;;;9.50;7.95;;;16.70;75.30;;;;;;4997202;28;20181;-88
2023/07/01 02:22:00;;;;;;;12.10;7.45;;;16.70;75.00;;;;;;4997308;28;20181;-88
2023/07/01 02:24:25;;;;;;;9.88;8.05;;;16.70;75.20;;;;;;4997379;28;20193;-88
2023/07/01 02:26:51;;;;;;;9.10;8.20;;;16.70;74.90;;;;;;5014633;28;20703;-88
2023/07/01 02:29:16;;;;;;;9.18;8.25;;;16.70;74.90;;;;;;5014558;28;20177;-88
2023/07/01 02:31:42;;;;;;;17.55;8.40;;;16.70;74.90;;;;;;4997124;28;20182;-87
2023/07/01 02:34:07;;;;;;;11.40;8.98;;;16.70;74.50;;;;;;4997094;28;20677;-88
2023/07/01 02:36:33;;;;;;;8.98;8.27;;;16.70;74.00;;;;;;4996900;28;20664;-87
2023/07/01 02:38:58;;;;;;;9.43;8.60;;;16.70;74.40;;;;;;5015033;28;20178;-88
2023/07/01 02:41:24;;;;;;;10.27;9.40;;;16.70;74.30;;;;;;4997702;28;20219;-88
2023/07/01 02:43:50;;;;;;;10.05;8.82;;;16.70;74.20;;;;;;4996803;28;20193;-88
2023/07/01 02:46:15;;;;;;;9.65;8.75;;;16.70;73.90;;;;;;4996869;28;20543;-87
2023/07/01 02:48:41;;;;;;;8.95;8.27;;;16.70;73.30;;;;;;4996803;28;20185;-88
2023/07/01 02:51:07;;;;;;;9.43;8.60;;;16.80;73.70;;;;;;4996636;28;20173;-87
2023/07/01 02:53:33;;;;;;;10.52;9.07;;;16.70;73.00;;;;;;5013526;28;20219;-87
2023/07/01 02:55:58;;;;;;;9.68;8.68;;;16.80;73.30;;;;;;4996424;28;20300;-87
2023/07/01 02:58:27;;;;;;;10.88;8.48;;;16.70;73.20;;;;;;4996571;28;20203;-87
2023/07/01 03:00:52;;;;;;;10.30;8.23;;;16.70;73.70;;;;;;4996473;28;20227;-88
2023/07/01 03:03:18;;;;;;;9.82;8.82;;;16.70;73.90;;;;;;4996970;28;20197;-87
2023/07/01 03:05:44;;;;;;;19.27;17.88;;;16.60;74.50;;;;;;4996454;28;20221;-88
2023/07/01 03:08:09;;;;;;;22.58;20.95;;;16.60;75.00;;;;;;4996281;28;20180;-88
2023/07/01 03:10:35;;;;;;;22.92;21.02;;;16.50;75.50;;;;;;4996440;28;20177;-88
2023/07/01 03:13:01;;;;;;;22.00;20.40;;;16.50;76.00;;;;;;5013638;28;20228;-87
2023/07/01 03:15:27;;;;;;;21.75;20.02;;;16.40;77.10;;;;;;4996356;28;20288;-88
2023/07/01 03:17:53;;;;;;;14.25;13.15;;;16.30;77.20;;;;;;4996105;28;20274;-87
2023/07/01 03:20:25;;;;;;;15.57;14.27;;;16.30;77.20;;;;;;5014326;28;20166;-87
2023/07/01 03:22:52;;;;;;;15.88;14.57;;;16.30;77.60;;;;;;5013820;28;20185;-87
2023/07/01 03:25:18;;;;;;;13.40;12.18;;;16.30;77.20;;;;;;4996217;28;20181;-88
2023/07/01 03:27:44;;;;;;;16.10;13.73;;;16.30;76.90;;;;;;4996158;28;20200;-87
2023/07/01 03:30:13;;;;;;;15.80;14.65;;;16.30;77.00;;;;;;4996355;28;20192;-87
2023/07/01 03:32:46;;;;;;;9.32;7.07;;;16.30;77.10;;;;;;4996070;28;20201;-88
2023/07/01 03:35:13;;;;;;;7.85;6.82;;;16.30;77.10;;;;;;4996189;28;20300;-87
2023/07/01 03:37:39;;;;;;;7.75;6.78;;;16.30;77.50;;;;;;4996944;28;20581;-87
2023/07/01 03:40:10;;;;;;;10.73;7.65;;;16.30;77.00;;;;;;5013537;28;20252;-87
2023/07/01 03:42:44;;;;;;;8.77;7.20;;;16.30;77.40;;;;;;4995968;28;20161;-87
2023/07/01 03:45:11;;;;;;;9.55;7.57;;;16.30;77.40;;;;;;4996923;28;20176;-87
2023/07/01 03:47:39;;;;;;;9.50;7.18;;;16.30;77.10;;;;;;4996020;28;20272;-88
2023/07/01 03:50:08;;;;;;;9.98;7.20;;;16.30;77.10;;;;;;4997086;28;20180;-87
2023/07/01 03:52:36;;;;;;;8.63;7.38;;;16.30;77.40;;;;;;4995773;28;20220;-88
2023/07/01 03:55:02;;;;;;;8.68;6.68;;;16.30;77.00;;;;;;4995980;28;20208;-88
2023/07/01 03:57:28;;;;;;;9.07;6.60;;;16.30;78.20;;;;;;4996162;28;20312;-88
2023/07/01 03:59:53;;;;;;;7.25;6.43;;;16.20;78.30;;;;;;4996166;28;20268;-88
2023/07/01 04:02:19;;;;;;;9.88;7.30;;;16.30;78.10;;;;;;4995678;28;20174;-87
2023/07/01 04:04:45;;;;;;;8.55;7.28;;;16.30;77.50;;;;;;4996031;28;20181;-87
2023/07/01 04:07:10;;;;;;;10.48;7.68;;;16.30;76.80;;;;;;4999785;28;20544;-87
2023/07/01 04:09:36;;;;;;;7.45;6.63;;;16.40;76.50;;;;;;4999674;28;20177;-88
2023/07/01 04:12:02;;;;;;;8.40;6.57;;;16.50;76.80;;;;;;4999597;28;20185;-88
2023/07/01 04:14:28;;;;;;;10.98;7.20;;;16.40;76.60;;;;;;4999410;28;20685;-87
2023/07/01 04:16:53;;;;;;;10.60;7.10;;;16.40;76.50;;;;;;4999501;28;20184;-88
2023/07/01 04:19:19;;;;;;;13.27;6.70;;;16.50;76.80;;;;;;5016977;28;20170;-88
2023/07/01 04:21:44;;;;;;;11.23;7.13;;;16.40;77.50;;;;;;5000442;28;20184;-88
2023/07/01 04:24:10;;;;;;;10.18;7.13;;;16.30;77.60;;;;;;4999338;28;20247;-88
2023/07/01 04:26:35;;;;;;;9.27;7.32;;;16.30;77.70;;;;;;4999174;28;20125;-88
2023/07/01 04:29:02;;;;;;;9.23;7.30;;;16.30;77.40;;;;;;4999264;28;20645;-88
2023/07/01 04:31:28;;;;;;;9.88;7.63;;;16.30;77.70;;;;;;4999074;28;20174;-88
2023/07/01 04:33:55;;;;;;;7.97;7.18;;;16.40;77.70;;;;;;4999165;28;20292;-88
2023/07/01 04:36:20;;;;;;;8.15;7.20;;;16.30;78.10;;;;;;4999427;28;20209;-88
2023/07/01 04:38:46;;;;;;;10.70;7.57;;;16.30;78.00;;;;;;4999550;28;20170;-88
2023/07/01 04:41:11;;;;;;;9.15;7.45;;;16.30;77.80;;;;;;5000123;28;20177;-88
2023/07/01 04:43:37;;;;;;;13.02;7.95;;;16.30;78.00;;;;;;5016411;28;20573;-88
2023/07/01 04:46:03;;;;;;;8.38;7.57;;;16.30;77.90;;;;;;4999008;28;20177;-88
2023/07/01 04:48:29;;;;;;;8.65;7.80;;;16.30;77.60;;;;;;4999003;28;20174;-88
2023/07/01 04:50:55;;;;;;;9.45;6.93;;;16.30;77.50;;;;;;4999080;28;20184;-88
2023/07/01 04:53:20;;;;;;;7.70;6.97;;;16.30;77.60;;;;;;4998870;28;20324;-88
2023/07/01 04:55:46;;;;;;;8.57;7.72;;;16.30;77.70;;;;;;4998788;28;20256;-88
2023/07/01 04:58:12;;;;;;;9.50;8.68;;;16.40;77.10;;;;;;4999169;28;20683;-88
2023/07/01 05:00:38;;;;;;;10.10;7.45;;;16.50;75.90;;;;;;4998874;28;20551;-88
2023/07/01 05:03:06;;;;;;;10.27;7.72;;;16.50;77.30;;;;;;4998751;28;20193;-88
2023/07/01 05:05:32;;;;;;;13.13;7.88;;;16.50;76.00;;;;;;5016295;28;20169;-88
2023/07/01 05:07:57;;;;;;;9.65;8.73;;;16.70;75.30;;;;;;4998796;28;20232;-88
2023/07/01 05:10:23;;;;;;;8.93;8.20;;;16.70;74.20;;;;;;5016186;28;20180;-88
2023/07/01 05:12:51;;;;;;;9.50;7.68;;;16.70;74.10;;;;;;5016201;28;20200;-88
2023/07/01 05:15:17;;;;;;;10.05;8.60;;;16.70;74.20;;;;;;4998349;28;20205;-88
2023/07/01 05:17:43;;;;;;;7.95;7.15;;;16.70;74.30;;;;;;4997976;28;20242;-88
2023/07/01 05:20:10;;;;;;;10.10;7.25;;;16.70;75.10;;;;;;4998552;28;20223;-87
2023/07/01 05:22:36;;;;;;;12.52;6.70;;;16.60;75.70;;;;;;5016634;28;20542;-87
2023/07/01 05:25:03;;;;;;;8.98;6.60;;;16.40;77.70;;;;;;4998338;28;20177;-88
2023/07/01 05:27:28;;;;;;;9.02;6.43;;;16.30;78.30;;;;;;5015735;28;20178;-87
2023/07/01 05:29:54;;;;;;;6.85;6.13;;;16.30;78.60;;;;;;4998096;28;20546;-88
2023/07/01 05:32:20;;;;;;;6.70;6.05;;;16.30;78.90;;;;;;4998907;28;20189;-88
2023/07/01 05:34:45;;;;;;;7.10;6.40;;;16.20;79.00;;;;;;4997883;28;20197;-87
2023/07/01 05:37:11;;;;;;;9.50;6.65;;;16.30;78.50;;;;;;4998141;28;20228;-86
2023/07/01 05:39:36;;;;;;;7.03;6.35;;;16.20;79.30;;;;;;4997730;28;20172;-86
2023/07/01 05:42:02;;;;;;;12.68;6.18;;;16.20;80.30;;;;;;4997760;28;20264;-86
2023/07/01 05:44:28;;;;;;;12.57;5.85;;;16.20;80.90;;;;;;4997600;28;20303;-87
2023/07/01 05:46:54;;;;;;;9.73;6.32;;;16.00;81.70;;;;;;5015120;28;20173;-86
2023/07/01 05:49:19;;;;;;;9.35;5.95;;;16.00;82.00;;;;;;5015077;28;20216;-87
2023/07/01 05:51:45;;;;;;;8.23;6.18;;;15.90;83.40;;;;;;4997482;28;20181;-88
2023/07/01 05:54:10;;;;;;;7.88;6.55;;;15.80;83.70;;;;;;4997343;28;20220;-88
2023/07/01 05:56:36;;;;;;;11.63;6.15;;;15.70;84.50;;;;;;4998487;28;20181;-88
2023/07/01 05:59:02;;;;;;;12.85;7.47;;;15.70;84.70;;;;;;4997433;28;20180;-89
2023/07/01 06:01:28;;;;;;;11.35;6.45;;;15.70;85.70;;;;;;4997344;28;20525;-89
2023/07/01 06:03:54;;;;;;;8.45;6.80;;;15.60;85.40;;;;;;4997123;28;20570;-89
2023/07/01 06:06:20;;;;;;;12.07;7.03;;;15.60;85.70;;;;;;4997221;28;20185;-89
2023/07/01 06:08:46;;;;;;;11.18;6.28;;;15.50;86.50;;;;;;4997203;28;20206;-89
2023/07/01 06:11:12;;;;;;;7.07;6.38;;;15.50;86.60;;;;;;4997251;28;20181;-89
2023/07/01 06:13:43;;;;;;;11.55;7.38;;;15.60;86.70;;;;;;4996927;28;20743;-89
2023/07/01 06:16:08;;;;;;;11.85;7.05;;;15.60;86.90;;;;;;4997043;28;20197;-89
2023/07/01 06:18:34;;;;;;;14.45;7.10;;;15.70;87.10;;;;;;4997016;28;20661;-89
2023/07/01 06:21:03;;;;;;;13.10;7.20;;;15.70;87.10;;;;;;4996964;28;20177;-89
2023/07/01 06:23:30;;;;;;;12.27;6.95;;;15.70;87.30;;;;;;5014638;28;20193;-88
2023/07/01 06:25:56;;;;;;;9.82;6.75;;;15.70;87.50;;;;;;4996808;28;20177;-87
2023/07/01 06:28:22;;;;;;;10.70;7.50;;;15.80;87.50;;;;;;5013849;28;20667;-88
2023/07/01 06:30:47;;;;;;;8.65;7.70;;;15.80;87.40;;;;;;5014548;28;20169;-89
2023/07/01 06:33:13;;;;;;;9.25;7.13;;;15.70;87.20;;;;;;4996615;28;20201;-88
2023/07/01 06:35:41;;;;;;;9.70;7.68;;;15.80;87.40;;;;;;4996611;28;20197;-88
2023/07/01 06:38:07;;;;;;;11.23;7.68;;;15.70;86.80;;;;;;4996642;28;20195;-88
2023/07/01 06:40:33;;;;;;;7.50;6.70;;;15.90;87.00;;;;;;4996652;28;20177;-89
2023/07/01 06:42:58;;;;;;;9.07;7.68;;;15.80;86.30;;;;;;4996615;28;20200;-88
2023/07/01 06:45:24;;;;;;;11.68;7.90;;;15.80;86.90;;;;;;4997341;28;20174;-88
2023/07/01 06:47:50;;;;;;;8.27;6.95;;;15.70;87.00;;;;;;4996744;28;20535;-89
2023/07/01 06:50:15;;;;;;;9.00;7.22;;;15.80;87.30;;;;;;4996581;28;20260;-88
2023/07/01 06:52:41;;;;;;;9.25;7.65;;;15.70;87.50;;;;;;4996188;28;20265;-88
2023/07/01 06:55:07;;;;;;;11.35;7.93;;;15.70;87.50;;;;;;4997409;28;20562;-89
2023/07/01 06:57:33;;;;;;;11.95;7.95;;;15.70;87.60;;;;;;4996458;28;20208;-89
2023/07/01 06:59:59;;;;;;;9.57;7.55;;;15.70;88.00;;;;;;4996370;28;20177;-89
2023/07/01 07:02:25;;;;;;;10.05;7.95;;;15.70;88.00;;;;;;4996119;28;20174;-89
2023/07/01 07:04:52;;;;;;;9.20;7.63;;;15.70;88.50;;;;;;4996871;28;20236;-89
2023/07/01 07:07:18;;;;;;;14.50;7.38;;;15.60;88.40;;;;;;4996958;28;20264;-88
2023/07/01 07:09:44;;;;;;;9.20;6.65;;;15.60;88.00;;;;;;4996191;28;20609;-88
2023/07/01 07:12:10;;;;;;;9.43;7.03;;;15.60;88.40;;;;;;4996029;28;20203;-89
2023/07/01 07:14:35;;;;;;;10.52;7.50;;;15.50;88.80;;;;;;4996160;28;20201;-88
2023/07/01 07:17:01;;;;;;;8.67;7.77;;;15.50;88.60;;;;;;4995992;28;20196;-88
2023/07/01 07:19:26;;;;;;;10.50;6.93;;;15.40;88.70;;;;;;5013632;28;20668;-88
2023/07/01 07:21:52;;;;;;;12.03;7.13;;;15.30;88.70;;;;;;4996046;28;20557;-88
2023/07/01 07:24:17;;;;;;;8.63;7.32;;;15.40;89.50;;;;;;4995981;28;20229;-88
2023/07/01 07:26:56;;;;;;;11.27;8.55;;;15.40;89.30;;;;;;4996059;28;20192;-88
2023/07/01 07:29:22;;;;;;;8.27;7.47;;;15.40;89.60;;;;;;4996013;28;20228;-88
2023/07/01 07:31:48;;;;;;;8.40;7.13;;;15.40;89.60;;;;;;4995905;28;20182;-88
2023/07/01 07:34:14;;;;;;;11.93;6.32;;;15.40;90.00;;;;;;4995899;28;20259;-88
2023/07/01 07:36:39;;;;;;;7.18;6.47;;;15.40;89.80;;;;;;4995862;28;20185;-88
2023/07/01 07:39:05;;;;;;;8.63;7.73;;;15.40;90.00;;;;;;4996239;28;20173;-88
2023/07/01 07:41:30;;;;;;;10.57;7.47;;;15.40;90.00;;;;;;4999963;28;20177;-88
2023/07/01 07:43:56;;;;;;;10.30;7.63;;;15.50;90.10;;;;;;4999926;28;20248;-88
2023/07/01 07:46:21;;;;;;;10.70;7.53;;;15.40;90.10;;;;;;4999950;28;20181;-88
2023/07/01 07:48:47;;;;;;;8.50;7.65;;;15.50;90.20;;;;;;4999931;28;20177;-88
2023/07/01 07:51:12;;;;;;;14.13;8.00;;;15.50;90.40;;;;;;5017308;28;20227;-88
2023/07/01 07:53:39;;;;;;;7.83;6.70;;;15.50;90.70;;;;;;4999685;28;20592;-88
2023/07/01 07:56:04;;;;;;;11.00;8.40;;;15.40;90.30;;;;;;4999549;28;20270;-88
2023/07/01 07:58:30;;;;;;;13.00;8.47;;;15.40;90.30;;;;;;4999710;28;20653;-88
2023/07/01 08:00:55;;;;;;;10.65;8.23;;;15.40;90.30;;;;;;4999660;28;20173;-84
2023/07/01 08:03:21;;;;;;;10.70;8.27;;;15.40;90.60;;;;;;5017070;28;20193;-86
2023/07/01 08:05:49;;;;;;;13.95;10.43;;;15.40;90.60;;;;;;4999509;28;20579;-87
2023/07/01 08:08:15;;;;;;;14.55;10.80;;;15.40;90.90;;;;;;4999409;28;20220;-88
2023/07/01 08:10:45;;;;;;;12.93;11.60;;;15.30;90.70;;;;;;5016973;28;20178;-88
2023/07/01 08:13:11;;;;;;;13.47;11.50;;;15.40;91.00;;;;;;4999386;28;20201;-88
2023/07/01 08:15:37;;;;;;;12.93;11.73;;;15.40;90.80;;;;;;4999176;28;20204;-88
2023/07/01 08:18:02;;;;;;;14.20;11.50;;;15.40;91.40;;;;;;4999968;28;20173;-89
2023/07/01 08:20:28;;;;;;;15.05;11.27;;;15.40;91.60;;;;;;4999229;28;20178;-89
2023/07/01 08:22:54;;;;;;;13.85;12.40;;;15.30;91.80;;;;;;4999034;28;20193;-89
2023/07/01 08:25:19;;;;;;;14.30;11.73;;;15.30;91.70;;;;;;4999304;28;20623;-89
2023/07/01 08:27:45;;;;;;;17.92;11.70;;;15.30;91.90;;;;;;4999546;28;20184;-88
2023/07/01 08:30:12;;;;;;;11.00;9.95;;;15.30;91.80;;;;;;5000159;28;20304;-88
2023/07/01 08:32:38;;;;;;;10.32;9.32;;;15.30;91.60;;;;;;5000160;28;20279;-88
2023/07/01 08:35:04;;;;;;;11.77;10.60;;;15.30;91.80;;;;;;4998836;28;20327;-88
2023/07/01 08:37:30;;;;;;;12.73;10.43;;;15.30;91.80;;;;;;4999060;28;20209;-88
2023/07/01 08:39:55;;;;;;;15.82;9.30;;;15.30;91.90;;;;;;4999743;28;20195;-88
2023/07/01 08:42:30;;;;;;;12.40;9.73;;;15.40;92.00;;;;;;5016406;28;20184;-90
2023/07/01 08:44:57;;;;;;;10.10;9.07;;;15.30;92.20;;;;;;4998730;28;20744;-88
2023/07/01 08:47:26;;;;;;;15.20;9.55;;;15.40;92.20;;;;;;5016776;28;20181;-88
2023/07/01 08:49:55;;;;;;;13.55;11.95;;;15.30;92.30;;;;;;4998780;28;20177;-88
2023/07/01 08:52:22;;;;;;;13.80;12.23;;;15.40;92.50;;;;;;4998250;28;20201;-89
2023/07/01 08:54:48;;;;;;;14.05;11.95;;;15.50;92.60;;;;;;4998567;28;20205;-88
2023/07/01 08:57:15;;;;;;;10.48;9.18;;;15.50;92.80;;;;;;4998670;28;20188;-88
2023/07/01 08:59:43;;;;;;;12.95;11.73;;;15.50;92.70;;;;;;4998579;28;20177;-88
2023/07/01 09:02:09;;;;;;;12.43;10.55;;;15.50;92.90;;;;;;4998424;28;20196;-89
2023/07/01 09:04:37;;;;;;;10.98;9.90;;;15.40;93.10;;;;;;4999101;28;20201;-88
2023/07/01 09:07:03;;;;;;;18.98;12.23;;;15.40;93.20;;;;;;4999156;28;20192;-88
2023/07/01 09:09:29;;;;;;;13.00;11.80;;;15.40;93.20;;;;;;4998786;28;20181;-88
2023/07/01 09:11:55;;;;;;;16.33;12.55;;;15.40;93.10;;;;;;4998518;28;20185;-88
2023/07/01 09:14:20;;;;;;;13.10;11.80;;;15.50;93.30;;;;;;5015781;28;20253;-88
2023/07/01 09:16:46;;;;;;;15.93;12.38;;;15.50;93.30;;;;;;4998249;28;20174;-88
2023/07/01 09:19:16;;;;;;;13.27;11.35;;;15.50;93.50;;;;;;4998483;28;20178;-88
2023/07/01 09:21:42;;;;;;;18.23;12.65;;;15.50;93.40;;;;;;4998466;28;20172;-88
2023/07/01 09:24:10;;;;;;;14.73;11.98;;;15.40;93.50;;;;;;4998361;28;20201;-88
2023/07/01 09:26:36;;;;;;;14.20;12.80;;;15.50;93.70;;;;;;4998249;28;20224;-85
2023/07/01 09:29:10;;;;;;;15.95;13.18;;;15.50;93.90;;;;;;5015761;28;20208;-90
2023/07/01 09:31:46;;;;;;;13.63;12.23;;;15.40;93.90;;;;;;4997978;28;20200;-87
2023/07/01 09:34:12;;;;;;;15.35;13.75;;;15.40;94.10;;;;;;4997759;28;20286;-87
2023/07/01 09:36:38;;;;;;;15.82;14.35;;;15.50;94.30;;;;;;4997918;28;20224;-90
2023/07/01 09:39:05;;;;;;;17.02;14.18;;;15.50;94.40;;;;;;4997916;28;20177;-88
2023/07/01 09:41:30;;;;;;;18.75;15.05;;;15.60;94.40;;;;;;4998152;28;20685;-90
2023/07/01 09:43:58;;;;;;;16.23;14.50;;;15.50;94.50;;;;;;4997629;28;20221;-89
2023/07/01 09:46:39;;;;;;;16.85;15.32;;;15.50;94.40;;;;;;4997727;28;20189;-88
2023/07/01 09:49:04;;;;;;;17.50;15.02;;;15.70;94.70;;;;;;4997749;28;20165;-90
2023/07/01 09:51:30;;;;;;;17.83;16.10;;;15.60;94.50;;;;;;4997939;28;20188;-91
2023/07/01 09:53:55;;;;;;;20.27;16.73;;;15.70;94.70;;;;;;4997574;28;20236;-90
2023/07/01 09:56:21;;;;;;;20.27;16.25;;;15.70;94.60;;;;;;4997474;28;20205;-90
2023/07/01 09:58:49;;;;;;;15.52;14.02;;;15.80;94.70;;;;;;4997440;28;20195;-90
2023/07/01 10:01:17;;;;;;;17.05;15.25;;;15.70;94.50;;;;;;4997735;28;20189;-90
2023/07/01 10:03:44;;;;;;;18.85;17.10;;;15.70;94.50;;;;;;4997372;28;20696;-90
2023/07/01 10:06:10;;;;;;;16.33;14.73;;;15.80;94.70;;;;;;4997426;28;20178;-90
2023/07/01 10:08:37;;;;;;;15.18;13.68;;;15.70;94.60;;;;;;4997784;28;20181;-90
2023/07/01 10:11:06;;;;;;;16.58;14.63;;;15.80;94.60;;;;;;4997450;28;20173;-90
2023/07/01 10:13:42;;;;;;;16.45;14.77;;;15.80;94.70;;;;;;4997025;28;20205;-91
2023/07/01 10:16:08;;;;;;;15.10;13.65;;;15.80;94.60;;;;;;4997250;28;20192;-89
2023/07/01 10:18:34;;;;;;;15.38;13.98;;;15.80;94.70;;;;;;4998009;28;20177;-90
2023/07/01 10:21:24;;;;;;;15.95;13.32;;;15.80;94.90;;;;;;4997733;28;20261;-90
2023/07/01 10:23:58;;;;;;;16.40;14.90;;;15.90;94.80;;;;;;4997175;28;20204;-90
2023/07/01 10:26:35;;;;;;;16.23;14.80;;;15.90;94.80;;;;;;4997705;28;20181;-88
2023/07/01 10:29:39;;;;;;;16.15;14.73;;;16.00;94.90;;;;;;4997481;28;20184;-90
2023/07/01 10:32:11;;;;;;;16.30;14.85;;;15.90;94.90;;;;;;4996929;28;20169;-91
2023/07/01 10:34:55;;;;;;;16.95;15.40;;;16.00;95.00;;;;;;4997527;28;20292;-87
2023/07/01 10:37:25;;;;;;;18.00;16.30;;;16.10;95.00;;;;;;5014290;28;20170;-85
2023/07/01 10:39:52;;;;;;;17.67;15.85;;;16.00;95.10;;;;;;4996742;28;20574;-86
2023/07/01 10:42:31;;;;;;;16.77;15.30;;;16.10;95.20;;;;;;4997093;28;20178;-86
2023/07/01 10:45:12;;;;;;;17.55;15.95;;;16.10;95.20;;;;;;4996569;28;20180;-88
2023/07/01 10:47:45;;;;;;;17.23;15.77;;;16.10;95.20;;;;;;4996509;28;20215;-88
2023/07/01 10:50:12;;;;;;;17.15;15.55;;;16.10;95.20;;;;;;4996478;28;20188;-89
2023/07/01 10:52:56;;;;;;;14.05;12.73;;;16.20;95.20;;;;;;4996429;28;20558;-89
2023/07/01 10:55:35;;;;;;;15.85;14.45;;;16.20;95.30;;;;;;4996649;28;20681;-89
2023/07/01 10:58:24;;;;;;;15.90;14.20;;;16.20;95.30;;;;;;4997084;28;20173;-90
2023/07/01 11:00:53;;;;;;;17.05;15.35;;;16.20;95.20;;;;;;4996865;28;20485;-89
2023/07/01 11:03:34;;;;;;;17.25;15.35;;;16.20;95.30;;;;;;4996266;28;20197;-90
2023/07/01 11:06:07;;;;;;;14.68;13.07;;;16.20;95.10;;;;;;4996390;28;20185;-90
2023/07/01 11:08:42;;;;;;;15.25;13.85;;;16.20;95.10;;;;;;4996147;28;20200;-89
2023/07/01 11:11:08;;;;;;;14.50;12.90;;;16.30;95.10;;;;;;4997034;28;20165;-90
2023/07/01 11:13:35;;;;;;;15.23;13.60;;;16.30;95.10;;;;;;4995985;28;20205;-89
2023/07/01 11:16:03;;;;;;;17.30;14.40;;;16.30;95.00;;;;;;4995733;28;20696;-90
2023/07/01 11:18:47;;;;;;;15.63;14.10;;;16.30;95.10;;;;;;4996418;28;20180;-90
2023/07/01 11:21:17;;;;;;;15.13;13.53;;;16.30;94.90;;;;;;4996147;28;20170;-88
2023/07/01 11:23:53;;;;;;;14.52;13.23;;;16.50;95.10;;;;;;4997431;28;20668;-90
2023/07/01 11:26:39;;;;;;;14.18;12.77;;;16.40;94.80;;;;;;5014902;28;20161;-89
2023/07/01 11:29:31;;;;;;;13.55;12.30;;;16.50;94.90;;;;;;4997057;28;20679;-89
2023/07/01 11:31:59;;;;;;;13.20;11.93;;;16.50;94.80;;;;;;4993039;28;20565;-89
2023/07/01 11:34:26;;;;;;;12.88;11.57;;;16.50;94.60;;;;;;5014025;28;20605;-89
2023/07/01 11:36:52;;;;;;;13.73;12.48;;;16.50;94.50;;;;;;5014510;28;20548;-90
2023/07/01 11:39:18;;;;;;;12.98;11.65;;;16.50;94.50;;;;;;5014358;28;20260;-89
2023/07/01 11:41:50;;;;;;;13.57;12.18;;;16.50;94.50;;;;;;5014245;28;20181;-89
2023/07/01 11:44:16;;;;;;;13.23;11.93;;;16.50;94.70;;;;;;4997021;28;20193;-90
2023/07/01 11:46:43;;;;;;;12.43;11.30;;;16.60;94.70;;;;;;5014485;28;20177;-89
2023/07/01 11:49:21;;;;;;;13.23;12.02;;;16.50;94.60;;;;;;4996629;28;20187;-89
2023/07/01 11:52:07;;;;;;;12.75;11.63;;;16.50;94.70;;;;;;5014067;28;20158;-89
2023/07/01 11:54:38;;;;;;;13.63;12.43;;;16.60;94.60;;;;;;4996419;28;20228;-90
2023/07/01 11:57:09;;;;;;;14.27;12.88;;;16.60;94.70;;;;;;5014442;28;20601;-89
2023/07/01 11:59:36;;;;;;;13.80;12.45;;;16.60;94.70;;;;;;5014070;28;20571;-89
2023/07/01 12:02:02;;;;;;;12.85;11.75;;;16.60;94.70;;;;;;5014332;28;20175;-89
2023/07/01 12:04:29;;;;;;;13.65;12.25;;;16.60;94.70;;;;;;5014375;28;20221;-90
2023/07/01 12:07:17;;;;;;;14.63;12.90;;;16.70;94.80;;;;;;4996334;28;20173;-90
2023/07/01 12:09:45;;;;;;;13.73;12.30;;;16.60;94.70;;;;;;4996410;28;20629;-90
2023/07/01 12:12:33;;;;;;;13.77;12.50;;;16.70;94.80;;;;;;5014110;28;20169;-89
2023/07/01 12:15:03;;;;;;;13.18;11.88;;;16.70;94.70;;;;;;5002040;28;20236;-89
2023/07/01 12:17:30;;;;;;;13.27;12.00;;;16.70;94.60;;;;;;4996379;28;20173;-89
2023/07/01 12:19:58;;;;;;;12.00;10.88;;;16.70;94.70;;;;;;5013907;28;20517;-89
2023/07/01 12:22:27;;;;;;;12.23;11.13;;;16.70;94.60;;;;;;4996231;28;20645;-89
2023/07/01 12:24:54;;;;;;;12.07;10.98;;;16.80;94.80;;;;;;5014250;28;20716;-89
2023/07/01 12:27:20;;;;;;;12.10;11.00;;;16.80;94.80;;;;;;5016084;28;20591;-89
2023/07/01 12:29:45;;;;;;;14.13;11.77;;;16.80;94.80;;;;;;5000012;28;20168;-89
2023/07/01 12:32:11;;;;;;;12.07;10.90;;;16.90;94.80;;;;;;4999801;28;20181;-90
2023/07/01 12:34:36;;;;;;;12.38;10.98;;;16.80;94.80;;;;;;5017009;28;20670;-90
2023/07/01 12:37:02;;;;;;;11.95;10.25;;;16.90;94.90;;;;;;5017938;28;20193;-89
2023/07/01 12:39:30;;;;;;;10.95;10.05;;;16.90;94.80;;;;;;5017503;28;20173;-89
2023/07/01 12:41:58;;;;;;;10.15;9.30;;;17.00;95.00;;;;;;5017135;28;20245;-89